Terminal Aerodrome Forecast
Issued by NWS

Home | Current Version | Previous Version | Graphics & Text | Print | Product List | Glossary On
Versions: 1 2 3 4 5 6 7 8 9 10 11 12 13 14
918
FTUS41 KCLE 222323
TAFFDY
TAF
KFDY 222323Z 2300/2324 16010KT P6SM BKN150
     FM230800 15008KT P6SM BKN040
     FM231300 14012KT P6SM VCSH BKN020
     FM231500 15013KT 5SM -SHRA OVC006
     FM231700 17012KT 3SM -RA BR OVC006=

USA.gov is the U.S. government's official web portal to all federal, state and local government web resources and services.